KBRD/BRD METAR and TAF weather

Enter ICAO airport designator
Station Type Date Time Source
KBRD METAR 2024/06/14 02:53 UTC NOAA

KBRD 140253Z AUTO 33005KT 10SM CLR 20/09 A2994 RMK AO2 SLP134 T02000094 53021


Station Type Date Time Source
KBRD Decoded METAR 2024/06/14 02:53 UTC NOAA

BRAINERD-CROW WING CO AIRPORT , MN, United States (KBRD) 46-24N 94-08W 372M
Jun 13, 2024 - 10:53 PM EDT / 2024.06.14 0253 UTC
Wind: from the NNW (330 degrees) at 6 MPH (5 KT):0
Visibility: 10 mile(s):0
Sky conditions: clear
Temperature: 68.0 F (20.0 C)
Dew Point: 48.9 F (9.4 C)
Relative Humidity: 50%
Pressure (altimeter): 29.94 in. Hg (1013 hPa)
Pressure tendency: 0.06 inches (2.1 hPa) higher than three hours ago
ob: KBRD 140253Z AUTO 33005KT 10SM CLR 20/09 A2994 RMK AO2 SLP134 T02000094 53021
cycle: 3

Station Type Date Time Source
KBRD TAF 2024/06/13 18:33 UTC NOAA